createdAt,value
2023-03-28T00:02:06.582Z,96192.91
2023-03-28T00:04:34.901Z,96191.72
2023-03-28T00:07:04.170Z,96202.71
2023-03-28T00:09:33.880Z,96206.88
2023-03-28T00:12:02.247Z,96204.29
2023-03-28T00:14:30.642Z,96197.03
2023-03-28T00:17:01.776Z,96201.86
2023-03-28T00:19:33.377Z,96220.98
2023-03-28T00:22:02.090Z,96224.77
2023-03-28T00:24:30.306Z,96232.51
2023-03-28T00:27:00.732Z,96241.10
2023-03-28T00:29:30.382Z,96238.89
2023-03-28T00:31:58.730Z,96245.10
2023-03-28T00:34:27.131Z,96249.08
2023-03-28T00:36:55.369Z,96246.16
2023-03-28T00:39:23.852Z,96244.41
2023-03-28T00:41:52.995Z,96260.27
2023-03-28T00:44:42.912Z,96258.20
2023-03-28T00:47:25.923Z,96252.70
2023-03-28T00:50:04.009Z,96262.19
2023-03-28T00:52:42.834Z,96272.36
2023-03-28T00:55:17.486Z,96269.64
2023-03-28T00:57:48.383Z,96272.02
2023-03-28T01:00:19.310Z,96271.16
2023-03-28T01:02:52.641Z,96274.30
2023-03-28T01:05:27.102Z,96278.05
2023-03-28T01:08:18.202Z,96271.02
2023-03-28T01:10:48.289Z,96276.69
2023-03-28T01:13:26.177Z,96260.86
2023-03-28T01:15:55.211Z,96271.03
2023-03-28T01:18:24.414Z,96276.20
2023-03-28T01:21:21.518Z,96283.64
2023-03-28T01:24:29.630Z,96266.42
2023-03-28T01:27:21.408Z,96275.58
2023-03-28T01:30:19.027Z,96288.98
2023-03-28T01:33:07.610Z,96290.21
2023-03-28T01:36:33.892Z,96290.36
2023-03-28T01:39:08.993Z,96297.60
2023-03-28T01:41:40.798Z,96317.91
2023-03-28T01:44:12.042Z,96312.59
2023-03-28T01:47:05.121Z,96324.27
2023-03-28T01:49:42.408Z,96333.06
2023-03-28T01:52:23.569Z,96311.92
2023-03-28T01:55:21.528Z,96315.52
2023-03-28T01:57:59.049Z,96315.32
2023-03-28T02:00:46.339Z,96332.00
2023-03-28T02:03:29.457Z,96343.17
2023-03-28T02:06:21.440Z,96345.95
2023-03-28T02:08:53.937Z,96354.35
2023-03-28T02:11:35.807Z,96352.27
2023-03-28T02:14:34.570Z,96362.27
2023-03-28T02:17:23.596Z,96354.37
2023-03-28T02:20:34.552Z,96367.11
2023-03-28T02:23:47.559Z,96377.27
2023-03-28T02:26:42.333Z,96384.15
2023-03-28T02:29:30.930Z,96367.84
2023-03-28T02:32:17.952Z,96371.63
2023-03-28T02:34:49.185Z,96381.94
2023-03-28T02:37:45.936Z,96374.73
2023-03-28T02:40:40.846Z,96375.06
2023-03-28T02:43:34.738Z,96403.25
2023-03-28T02:46:21.761Z,96403.41
2023-03-28T02:49:10.581Z,96399.98
2023-03-28T02:51:41.792Z,96408.06
2023-03-28T02:54:36.510Z,96417.52
2023-03-28T02:57:43.051Z,96430.93
2023-03-28T03:00:16.891Z,96443.98
2023-03-28T03:02:51.899Z,96449.31
2023-03-28T03:05:21.931Z,96450.35
2023-03-28T03:07:51.766Z,96459.98
2023-03-28T03:10:22.270Z,96461.51
2023-03-28T03:12:50.725Z,96469.60
2023-03-28T03:15:19.192Z,96470.29
2023-03-28T03:17:47.663Z,96480.94
2023-03-28T03:20:16.823Z,96467.54
2023-03-28T03:22:45.693Z,96470.11
2023-03-28T03:25:14.477Z,96481.63
2023-03-28T03:27:57.302Z,96494.34
2023-03-28T03:30:25.497Z,96493.30
2023-03-28T03:33:16.885Z,96512.39
2023-03-28T03:35:48.662Z,96514.97
2023-03-28T03:38:17.478Z,96525.95
2023-03-28T03:40:45.888Z,96536.25
2023-03-28T03:43:15.748Z,96528.02
2023-03-28T03:45:46.114Z,96529.90
2023-03-28T03:48:15.063Z,96534.19
2023-03-28T03:50:43.205Z,96543.29
2023-03-28T03:53:16.834Z,96544.32
2023-03-28T03:56:08.046Z,96555.82
2023-03-28T03:58:53.230Z,96547.08
2023-03-28T04:01:26.217Z,96580.40
2023-03-28T04:03:57.692Z,96579.55
2023-03-28T04:06:34.452Z,96583.51
2023-03-28T04:09:10.493Z,96580.25
2023-03-28T04:11:58.602Z,96578.89
2023-03-28T04:14:27.617Z,96592.63
2023-03-28T04:17:16.593Z,96593.80
2023-03-28T04:19:46.096Z,96604.61
2023-03-28T04:22:18.448Z,96603.08
2023-03-28T04:24:53.809Z,96609.26
2023-03-28T04:27:35.582Z,96608.40
2023-03-28T04:30:04.626Z,96615.10
2023-03-28T04:32:54.760Z,96620.27
2023-03-28T04:35:30.016Z,96627.80
2023-03-28T04:37:58.422Z,96640.48
2023-03-28T04:40:28.354Z,96644.77
2023-03-28T04:43:16.538Z,96654.38
2023-03-28T04:45:51.873Z,96668.12
2023-03-28T04:48:22.963Z,96674.80
2023-03-28T04:50:52.750Z,96674.98
2023-03-28T04:53:21.766Z,96679.95
2023-03-28T04:56:19.927Z,96700.85
2023-03-28T04:58:48.361Z,96705.31
2023-03-28T05:01:16.898Z,96701.57
2023-03-28T05:04:04.364Z,96710.84
2023-03-28T05:06:33.702Z,96705.51
2023-03-28T05:09:04.813Z,96714.40
2023-03-28T05:11:35.035Z,96721.29
2023-03-28T05:14:03.395Z,96727.98
2023-03-28T05:16:37.176Z,96719.40
2023-03-28T05:19:25.219Z,96735.50
2023-03-28T05:22:02.928Z,96732.58
2023-03-28T05:24:32.004Z,96748.55
2023-03-28T05:27:00.652Z,96745.97
2023-03-28T05:29:28.890Z,96749.98
2023-03-28T05:31:57.267Z,96738.11
2023-03-28T05:34:29.660Z,96747.70
2023-03-28T05:36:58.711Z,96762.58
2023-03-28T05:39:30.733Z,96737.65
2023-03-28T05:42:05.246Z,96758.41
2023-03-28T05:44:35.418Z,96766.15
2023-03-28T05:47:26.800Z,96771.08
2023-03-28T05:49:55.522Z,96783.15
2023-03-28T05:52:24.027Z,96784.27
2023-03-28T05:54:53.093Z,96789.61
2023-03-28T05:57:23.157Z,96787.00
2023-03-28T05:59:51.826Z,96792.09
2023-03-28T06:02:23.815Z,96795.34
2023-03-28T06:04:55.306Z,96798.50
2023-03-28T06:07:35.147Z,96791.28
2023-03-28T06:10:13.361Z,96784.23
2023-03-28T06:12:43.699Z,96805.73
2023-03-28T06:15:13.032Z,96812.27
2023-03-28T06:17:43.805Z,96815.86
2023-03-28T06:20:12.693Z,96832.81
2023-03-28T06:22:41.687Z,96841.05
2023-03-28T06:25:12.218Z,96834.64
2023-03-28T06:27:41.011Z,96841.36
2023-03-28T06:30:09.799Z,96847.48
2023-03-28T06:32:44.391Z,96848.08
2023-03-28T06:35:15.875Z,96850.20
2023-03-28T06:37:44.034Z,96860.40
2023-03-28T06:40:14.577Z,96859.55
2023-03-28T06:42:43.982Z,96864.38
2023-03-28T06:45:31.081Z,96883.14
2023-03-28T06:48:04.549Z,96876.95
2023-03-28T06:50:57.159Z,96880.57
2023-03-28T06:53:27.776Z,96902.60
2023-03-28T06:55:56.391Z,96914.74
2023-03-28T06:58:25.269Z,96920.02
2023-03-28T07:01:00.872Z,96932.98
2023-03-28T07:03:33.186Z,96942.23
2023-03-28T07:06:07.424Z,96955.24
2023-03-28T07:08:36.365Z,96964.01
2023-03-28T07:11:05.572Z,96965.94
2023-03-28T07:13:34.743Z,96962.38
2023-03-28T07:16:15.206Z,96962.52
2023-03-28T07:18:44.631Z,96965.21
2023-03-28T07:21:18.375Z,96969.93
2023-03-28T07:23:47.526Z,96976.83
2023-03-28T07:26:18.897Z,96972.20
2023-03-28T07:28:47.268Z,96990.73
2023-03-28T07:31:17.149Z,96992.89
2023-03-28T07:33:45.974Z,97011.00
2023-03-28T07:36:18.307Z,96998.77
2023-03-28T07:38:50.507Z,96995.02
2023-03-28T07:41:20.086Z,97007.11
2023-03-28T07:43:48.963Z,97012.97
2023-03-28T07:50:27.335Z,97004.77
2023-03-28T07:53:00.558Z,97017.24
2023-03-28T07:55:37.236Z,97009.34
2023-03-28T07:58:14.452Z,97007.98
2023-03-28T08:00:46.407Z,97019.34
2023-03-28T08:03:50.699Z,97002.63
2023-03-28T08:06:31.466Z,97012.13
2023-03-28T08:09:02.440Z,97015.58
2023-03-28T08:11:44.374Z,97003.86
2023-03-28T08:14:16.593Z,97012.98
2023-03-28T08:16:45.934Z,97028.83
2023-03-28T08:19:14.738Z,97026.77
2023-03-28T08:22:02.896Z,97029.39
2023-03-28T08:24:36.092Z,97028.52
2023-03-28T08:27:21.287Z,97030.05
2023-03-28T08:29:52.820Z,97016.02
2023-03-28T08:32:21.313Z,97028.61
2023-03-28T08:34:50.008Z,97040.02
2023-03-28T08:37:22.484Z,97046.55
2023-03-28T08:39:51.523Z,97039.99
2023-03-28T08:42:41.582Z,97035.67
2023-03-28T08:45:26.772Z,97043.30
2023-03-28T08:48:14.107Z,97065.72
2023-03-28T08:50:50.498Z,97066.41
2023-03-28T08:53:37.700Z,97070.73
2023-03-28T08:56:07.865Z,97070.76
2023-03-28T08:58:50.561Z,97086.95
2023-03-28T09:01:22.449Z,97076.41
2023-03-28T09:03:51.411Z,97080.38
2023-03-28T09:06:33.556Z,97079.20
2023-03-28T09:09:21.338Z,97075.05
2023-03-28T09:12:13.395Z,97077.81
2023-03-28T09:14:43.022Z,97078.31
2023-03-28T09:17:30.220Z,97079.20
2023-03-28T09:20:14.445Z,97086.93
2023-03-28T09:23:13.818Z,97102.91
2023-03-28T09:26:04.322Z,97077.59
2023-03-28T09:28:52.784Z,97079.02
2023-03-28T09:31:28.223Z,97097.95
2023-03-28T09:34:00.862Z,97099.10
2023-03-28T09:36:49.069Z,97116.36
2023-03-28T09:39:36.940Z,97100.40
2023-03-28T09:42:15.741Z,97088.57
2023-03-28T09:45:16.642Z,97100.14
2023-03-28T09:48:17.021Z,97110.45
2023-03-28T09:50:47.757Z,97101.85
2023-03-28T09:53:37.161Z,97112.22
2023-03-28T09:56:13.357Z,97118.92
2023-03-28T09:58:54.873Z,97130.52
2023-03-28T10:01:44.717Z,97121.66
2023-03-28T10:04:39.308Z,97117.36
2023-03-28T10:07:34.573Z,97121.02
2023-03-28T10:10:19.227Z,97149.84
2023-03-28T10:12:49.758Z,97120.99
2023-03-28T10:15:42.113Z,97114.29
2023-03-28T10:18:31.505Z,97128.44
2023-03-28T10:21:19.020Z,97129.31
2023-03-28T10:24:16.204Z,97121.38
2023-03-28T10:26:49.693Z,97117.08
2023-03-28T10:29:18.520Z,97112.07
2023-03-28T10:31:50.187Z,97126.07
2023-03-28T10:35:00.688Z,97144.70
2023-03-28T10:37:43.213Z,97149.88
2023-03-28T10:40:21.149Z,97140.21
2023-03-28T10:43:16.717Z,97151.10
2023-03-28T10:46:07.226Z,97141.41
2023-03-28T10:49:03.485Z,97139.36
2023-03-28T10:51:33.647Z,97145.91
2023-03-28T10:54:16.591Z,97148.31
2023-03-28T10:56:52.942Z,97148.80
2023-03-28T10:59:42.178Z,97143.80
2023-03-28T11:02:23.186Z,97138.24
2023-03-28T11:04:57.954Z,97151.00
2023-03-28T11:07:43.921Z,97149.80
2023-03-28T11:11:00.693Z,97129.91
2023-03-28T11:14:23.040Z,97159.50
2023-03-28T11:17:13.581Z,97148.05
2023-03-28T11:20:22.327Z,97158.42
2023-03-28T11:23:29.326Z,97162.23
2023-03-28T11:26:48.800Z,97169.65
2023-03-28T11:30:01.302Z,97160.48
2023-03-28T11:32:51.804Z,97173.07
2023-03-28T11:35:32.447Z,97160.09
2023-03-28T11:38:14.680Z,97166.72
2023-03-28T11:41:03.591Z,97166.09
2023-03-28T11:44:16.621Z,97175.77
2023-03-28T11:46:51.568Z,97183.91
2023-03-28T11:49:37.053Z,97176.64
2023-03-28T11:52:24.242Z,97167.13
2023-03-28T11:55:02.509Z,97168.46
2023-03-28T11:57:43.154Z,97172.27
2023-03-28T12:00:33.378Z,97180.52
2023-03-28T12:03:45.231Z,97166.27
2023-03-28T12:07:03.015Z,97167.55
2023-03-28T12:09:57.818Z,97184.27
2023-03-28T12:12:47.727Z,97175.97
2023-03-28T12:15:20.397Z,97181.84
2023-03-28T12:18:06.851Z,97152.61
2023-03-28T12:21:00.866Z,97189.14
2023-03-28T12:24:03.958Z,97190.40
2023-03-28T12:27:05.286Z,97195.25
2023-03-28T12:29:44.317Z,97200.96
2023-03-28T12:32:43.209Z,97198.36
2023-03-28T12:35:34.100Z,97212.36
2023-03-28T12:38:24.736Z,97227.08
2023-03-28T12:41:05.907Z,97219.65
2023-03-28T12:43:47.627Z,97216.20
2023-03-28T12:46:30.977Z,97210.69
2023-03-28T12:49:09.402Z,97203.77
2023-03-28T12:51:51.788Z,97205.48
2023-03-28T12:54:28.349Z,97207.19
2023-03-28T12:57:02.288Z,97205.98
2023-03-28T12:59:36.279Z,97199.90
2023-03-28T13:02:18.506Z,97197.45
2023-03-28T13:05:28.939Z,97198.21
2023-03-28T13:08:03.513Z,97207.65
2023-03-28T13:10:44.674Z,97206.60
2023-03-28T13:13:55.537Z,97203.25
2023-03-28T13:16:42.741Z,97209.13
2023-03-28T13:19:17.148Z,97210.83
2023-03-28T13:21:57.971Z,97206.41
2023-03-28T13:24:26.719Z,97209.67
2023-03-28T13:27:16.173Z,97208.64
2023-03-28T13:29:51.235Z,97214.91
2023-03-28T13:32:24.277Z,97212.55
2023-03-28T13:35:04.567Z,97215.31
2023-03-28T13:37:42.102Z,97216.66
2023-03-28T13:40:46.295Z,97209.85
2023-03-28T13:43:45.163Z,97211.60
2023-03-28T13:46:13.265Z,97218.83
2023-03-28T13:49:02.493Z,97236.87
2023-03-28T13:51:53.424Z,97239.06
2023-03-28T13:54:23.932Z,97247.48
2023-03-28T13:56:53.512Z,97256.57
2023-03-28T13:59:27.145Z,97255.03
2023-03-28T14:01:57.792Z,97262.30
2023-03-28T14:04:32.240Z,97269.25
2023-03-28T14:07:02.408Z,97261.30
2023-03-28T14:09:36.339Z,97263.73
2023-03-28T14:12:08.901Z,97269.94
2023-03-28T14:14:44.441Z,97262.85
2023-03-28T14:17:19.162Z,97274.89
2023-03-28T14:19:54.017Z,97277.46
2023-03-28T14:22:29.397Z,97277.27
2023-03-28T14:25:16.376Z,97285.85
2023-03-28T14:27:49.131Z,97289.55
2023-03-28T14:30:39.886Z,97298.27
2023-03-28T14:33:14.369Z,97301.58
2023-03-28T14:35:44.292Z,97303.89
2023-03-28T14:38:16.166Z,97300.84
2023-03-28T14:40:46.042Z,97304.61
2023-03-28T14:43:14.448Z,97305.60
2023-03-28T14:45:52.193Z,97309.60
2023-03-28T14:48:25.194Z,97321.52
2023-03-28T14:50:54.732Z,97314.93
2023-03-28T14:53:35.056Z,97313.78
2023-03-28T14:56:11.290Z,97315.18
2023-03-28T14:58:42.863Z,97317.65
2023-03-28T15:01:22.849Z,97308.72
2023-03-28T15:03:58.211Z,97317.04
2023-03-28T15:06:29.618Z,97321.73
2023-03-28T15:09:00.754Z,97322.63
2023-03-28T15:11:35.720Z,97326.44
2023-03-28T15:14:17.128Z,97336.95
2023-03-28T15:16:48.324Z,97343.04
2023-03-28T15:19:21.280Z,97346.45
2023-03-28T15:21:55.949Z,97349.59
2023-03-28T15:24:27.914Z,97354.41
2023-03-28T15:26:59.949Z,97349.41
2023-03-28T15:29:32.761Z,97342.55
2023-03-28T15:32:13.267Z,97340.73
2023-03-28T15:34:48.559Z,97342.67
2023-03-28T15:37:22.986Z,97336.02
2023-03-28T15:39:53.169Z,97329.17
2023-03-28T15:42:22.974Z,97334.17
2023-03-28T15:44:58.236Z,97336.70
2023-03-28T15:47:34.256Z,97340.09
2023-03-28T15:50:08.742Z,97347.27
2023-03-28T15:52:37.727Z,97353.17
2023-03-28T15:55:06.729Z,97358.09
2023-03-28T15:57:36.454Z,97364.22
2023-03-28T16:00:07.116Z,97378.27
2023-03-28T16:02:43.149Z,97384.21
2023-03-28T16:05:14.400Z,97383.16
2023-03-28T16:07:46.284Z,97393.60
2023-03-28T16:10:20.078Z,97399.84
2023-03-28T16:13:06.783Z,97405.86
2023-03-28T16:16:07.991Z,97412.94
2023-03-28T16:18:46.543Z,97415.97
2023-03-28T16:21:15.194Z,97421.55
2023-03-28T16:23:43.509Z,97425.41
2023-03-28T16:26:12.828Z,97428.56
2023-03-28T16:28:41.106Z,97433.17
2023-03-28T16:31:14.934Z,97439.46
2023-03-28T16:33:43.853Z,97441.81
2023-03-28T16:36:13.588Z,97448.16
2023-03-28T16:38:43.025Z,97460.25
2023-03-28T16:41:11.895Z,97461.71
2023-03-28T16:43:40.990Z,97469.66
2023-03-28T16:46:11.139Z,97482.95
2023-03-28T16:48:41.264Z,97500.75
2023-03-28T16:51:09.592Z,97509.07
2023-03-28T16:53:39.617Z,97510.92
2023-03-28T16:56:12.056Z,97514.84
2023-03-28T16:58:40.537Z,97522.98
2023-03-28T17:01:19.510Z,97520.87
2023-03-28T17:03:50.044Z,97524.80
2023-03-28T17:06:18.568Z,97525.89
2023-03-28T17:08:46.872Z,97528.04
2023-03-28T17:11:16.294Z,97530.44
2023-03-28T17:13:44.314Z,97536.42
2023-03-28T17:16:12.572Z,97538.76
2023-03-28T17:18:40.746Z,97537.34
2023-03-28T17:21:12.555Z,97543.48
2023-03-28T17:23:42.139Z,97547.54
2023-03-28T17:26:12.282Z,97554.04
2023-03-28T17:28:42.530Z,97556.60
2023-03-28T17:31:14.888Z,97549.23
2023-03-28T17:33:44.247Z,97555.24
2023-03-28T17:36:24.236Z,97560.73
2023-03-28T17:38:56.070Z,97562.03
2023-03-28T17:41:28.010Z,97567.17
2023-03-28T17:43:57.507Z,97574.84
2023-03-28T17:46:26.838Z,97576.25
2023-03-28T17:48:55.093Z,97579.58
2023-03-28T17:51:23.376Z,97578.42
2023-03-28T17:53:51.895Z,97579.83
2023-03-28T17:56:20.204Z,97590.50
2023-03-28T17:58:49.063Z,97586.10
2023-03-28T18:01:19.851Z,97582.18
2023-03-28T18:03:48.663Z,97585.41
2023-03-28T18:06:36.059Z,97586.73
2023-03-28T18:09:05.157Z,97586.75
2023-03-28T18:11:34.483Z,97586.56
2023-03-28T18:14:02.948Z,97585.08
2023-03-28T18:16:32.356Z,97587.55
2023-03-28T18:19:01.530Z,97591.82
2023-03-28T18:21:30.305Z,97588.80
2023-03-28T18:23:58.666Z,97593.49
2023-03-28T18:26:28.961Z,97595.45
2023-03-28T18:28:57.385Z,97592.86
2023-03-28T18:31:28.420Z,97588.08
2023-03-28T18:33:58.001Z,97592.63
2023-03-28T18:36:26.196Z,97593.06
2023-03-28T18:38:56.277Z,97599.59
2023-03-28T18:41:25.519Z,97602.27
2023-03-28T18:43:53.749Z,97605.95
2023-03-28T18:46:21.856Z,97610.05
2023-03-28T18:48:49.997Z,97613.16
2023-03-28T18:51:18.624Z,97609.09
2023-03-28T18:53:47.036Z,97611.69
2023-03-28T18:56:17.086Z,97613.23
2023-03-28T18:58:46.659Z,97616.29
2023-03-28T19:01:15.879Z,97616.77
2023-03-28T19:03:45.080Z,97624.05
2023-03-28T19:06:15.441Z,97624.14
2023-03-28T19:08:44.828Z,97623.05
2023-03-28T19:11:16.860Z,97626.39
2023-03-28T19:13:45.559Z,97628.35
2023-03-28T19:16:15.891Z,97629.63
2023-03-28T19:18:47.087Z,97631.80
2023-03-28T19:21:17.022Z,97635.90
2023-03-28T19:23:47.007Z,97639.98
2023-03-28T19:26:15.786Z,97637.38
2023-03-28T19:28:44.906Z,97637.23
2023-03-28T19:31:14.254Z,97643.41
2023-03-28T19:33:43.681Z,97643.89
2023-03-28T19:36:12.369Z,97646.59
2023-03-28T19:38:40.729Z,97652.16
2023-03-28T19:41:18.418Z,97656.58
2023-03-28T19:43:48.848Z,97658.56
2023-03-28T19:46:27.403Z,97661.21
2023-03-28T19:48:59.085Z,97662.83
2023-03-28T19:51:28.472Z,97660.86
2023-03-28T19:53:57.326Z,97666.64
2023-03-28T19:56:25.581Z,97665.42
2023-03-28T19:58:53.682Z,97666.30
2023-03-28T20:01:21.898Z,97667.34
2023-03-28T20:03:53.226Z,97666.85
2023-03-28T20:06:23.215Z,97664.33
2023-03-28T20:08:51.856Z,97665.02
2023-03-28T20:11:20.078Z,97664.83
2023-03-28T20:13:48.314Z,97669.95
2023-03-28T20:16:16.706Z,97673.67
2023-03-28T20:18:44.761Z,97672.42
2023-03-28T20:21:13.744Z,97676.45
2023-03-28T20:23:43.069Z,97672.45
2023-03-28T20:26:20.683Z,97675.30
2023-03-28T20:28:59.648Z,97675.05
2023-03-28T20:31:28.746Z,97676.33
2023-03-28T20:33:57.452Z,97674.02
2023-03-28T20:36:25.649Z,97676.02
2023-03-28T20:38:55.124Z,97678.02
2023-03-28T20:41:24.373Z,97674.77
2023-03-28T20:43:53.443Z,97673.92
2023-03-28T20:46:22.407Z,97675.02
2023-03-28T20:48:53.007Z,97673.64
2023-03-28T20:51:23.338Z,97675.70
2023-03-28T20:54:02.133Z,97681.50
2023-03-28T20:56:31.934Z,97683.98
2023-03-28T20:59:00.130Z,97686.64
2023-03-28T21:01:30.115Z,97687.77
2023-03-28T21:04:02.356Z,97688.23
2023-03-28T21:06:38.428Z,97697.11
2023-03-28T21:09:16.288Z,97697.73
2023-03-28T21:11:44.433Z,97694.89
2023-03-28T21:14:14.463Z,97692.74
2023-03-28T21:16:42.696Z,97699.38
2023-03-28T21:19:11.023Z,97699.81
2023-03-28T21:21:39.171Z,97702.98
2023-03-28T21:24:07.704Z,97704.14
2023-03-28T21:26:36.199Z,97708.95
2023-03-28T21:29:04.954Z,97708.09
2023-03-28T21:31:33.501Z,97714.13
2023-03-28T21:34:01.576Z,97712.08
2023-03-28T21:36:29.652Z,97715.21
2023-03-28T21:38:57.646Z,97711.50
2023-03-28T21:41:27.588Z,97712.23
2023-03-28T21:43:56.908Z,97716.23
2023-03-28T21:46:25.445Z,97718.26
2023-03-28T21:48:53.573Z,97720.62
2023-03-28T21:51:21.707Z,97723.45
2023-03-28T21:53:49.780Z,97727.15
2023-03-28T21:56:17.823Z,97727.92
2023-03-28T21:58:46.010Z,97726.81
2023-03-28T22:01:17.648Z,97727.21
2023-03-28T22:03:47.264Z,97731.41
2023-03-28T22:06:18.309Z,97732.69
2023-03-28T22:08:49.531Z,97737.64
2023-03-28T22:11:28.304Z,97737.95
2023-03-28T22:14:02.646Z,97738.61
2023-03-28T22:16:39.726Z,97742.06
2023-03-28T22:19:09.945Z,97744.40
2023-03-28T22:21:37.977Z,97741.09
2023-03-28T22:24:13.137Z,97742.23
2023-03-28T22:26:45.137Z,97747.30
2023-03-28T22:29:13.373Z,97743.73
2023-03-28T22:31:42.177Z,97752.86
2023-03-28T22:34:10.387Z,97750.60
2023-03-28T22:36:38.420Z,97750.94
2023-03-28T22:39:08.004Z,97756.73
2023-03-28T22:41:35.929Z,97761.35
2023-03-28T22:44:04.234Z,97766.99
2023-03-28T22:46:32.415Z,97764.27
2023-03-28T22:49:00.595Z,97769.78
2023-03-28T22:51:29.914Z,97781.48
2023-03-28T22:54:02.057Z,97781.38
2023-03-28T22:56:30.906Z,97780.96
2023-03-28T22:59:01.668Z,97785.33
2023-03-28T23:01:30.047Z,97782.98
2023-03-28T23:03:58.218Z,97785.98
2023-03-28T23:06:27.328Z,97783.65
2023-03-28T23:08:55.244Z,97784.91
2023-03-28T23:11:23.334Z,97788.33
2023-03-28T23:13:51.848Z,97788.80
2023-03-28T23:16:19.884Z,97789.82
2023-03-28T23:18:50.187Z,97794.55
2023-03-28T23:21:18.963Z,97793.93
2023-03-28T23:23:47.574Z,97797.80
2023-03-28T23:26:15.894Z,97802.11
2023-03-28T23:28:44.756Z,97802.13
2023-03-28T23:31:15.666Z,97801.95
2023-03-28T23:33:46.529Z,97806.06
2023-03-28T23:36:15.541Z,97807.80
2023-03-28T23:38:43.768Z,97811.13
2023-03-28T23:41:11.880Z,97809.52
2023-03-28T23:43:40.153Z,97804.84
2023-03-28T23:46:09.211Z,97808.64
2023-03-28T23:48:37.397Z,97806.73
2023-03-28T23:51:05.867Z,97806.52
2023-03-28T23:53:33.879Z,97803.09
2023-03-28T23:56:03.603Z,97806.80
2023-03-28T23:58:31.790Z,97801.88
